South Hills Village, Pennsylvania
Current Conditions -  °F | °C
As of 10:53 AM on Saturday 25 Oct 2014 (Local Time) from KAGC Reporting Station
Overcast Overcast  
Wind Chill: 56°   Ceiling: 10000
Heat Index: 56°   Visibility: 10mi
Dew Point: 42°   Wind: 10mph
Humidity: 60%   Direction: 210°SSW
Pressure: 29.93"   Gusts: NA
Location:  40.3301°N, 80.0824°W
Report Text: KAGC 251453Z AUTO 21009KT 10SM FEW035 OVC100 13/06 A2993 RMK AO2 SLP141 T01330056 58009 TSNO
Loading
Personal Weather Stations






























Interactive Weather Map
Tropical Storm Tracking
New forecast layout! Learn more

10-Day Weather Forecast

Advertisements
Track Severe Weather on mobile